Time;durP1;ratioP1;P1;durP2;ratioP2;P2;SDS_P1;SDS_P2;PMS_P1;PMS_P2;Temp;Humidity;BMP_temperature;BMP_pressure;BME280_temperature;BME280_humidity;BME280_pressure;Samples;Min_cycle;Max_cycle;Signal;HPM_P1;HPM_P2
2021/01/22 00:00:47;;;;;;;6.28;1.45;;;;;;;;;;6272997;22;20014;-75
2021/01/22 00:03:13;;;;;;;3.42;1.20;;;;;;;;;;6273046;22;20027;-75
2021/01/22 00:05:39;;;;;;;2.97;1.40;;;;;;;;;;6273176;22;20496;-76
2021/01/22 00:08:05;;;;;;;3.20;1.25;;;;;;;;;;6273584;22;20011;-76
2021/01/22 00:10:31;;;;;;;2.53;1.40;;;;;;;;;;6273802;22;20053;-76
2021/01/22 00:12:57;;;;;;;3.50;1.60;;;;;;;;;;6273515;22;20007;-76
2021/01/22 00:15:23;;;;;;;2.58;1.38;;;;;;;;;;6272401;22;20459;-75
2021/01/22 00:17:49;;;;;;;2.47;1.50;;;;;;;;;;6273556;22;20573;-77
2021/01/22 00:20:15;;;;;;;3.65;1.48;;;;;;;;;;6272685;22;20033;-75
2021/01/22 00:22:41;;;;;;;3.17;1.50;;;;;;;;;;6272756;22;20963;-76
2021/01/22 00:25:07;;;;;;;2.63;1.10;;;;;;;;;;6272892;22;20003;-76
2021/01/22 00:27:34;;;;;;;4.40;1.52;;;;;;;;;;6273222;22;20411;-76
2021/01/22 00:30:00;;;;;;;2.25;1.38;;;;;;;;;;6273015;22;20011;-77
2021/01/22 00:32:26;;;;;;;2.20;1.10;;;;;;;;;;6273536;22;20094;-76
2021/01/22 00:34:51;;;;;;;1.50;0.90;;;;;;;;;;6273015;22;20787;-75
2021/01/22 00:37:17;;;;;;;2.03;1.00;;;;;;;;;;6273587;22;20011;-76
2021/01/22 00:39:43;;;;;;;3.03;1.00;;;;;;;;;;6273183;22;20459;-75
2021/01/22 00:42:09;;;;;;;2.42;0.98;;;;;;;;;;6273075;22;20003;-76
2021/01/22 00:44:36;;;;;;;2.17;1.00;;;;;;;;;;6273125;22;20014;-77
2021/01/22 00:47:02;;;;;;;1.50;0.90;;;;;;;;;;6273022;22;20427;-76
2021/01/22 00:49:28;;;;;;;2.22;1.05;;;;;;;;;;6273513;22;20002;-78
2021/01/22 00:51:54;;;;;;;1.75;0.90;;;;;;;;;;6273053;22;20082;-76
2021/01/22 00:54:20;;;;;;;2.20;1.00;;;;;;;;;;6272646;22;20086;-76
2021/01/22 00:56:46;;;;;;;1.67;1.00;;;;;;;;;;6273283;22;20434;-77
2021/01/22 00:59:12;;;;;;;2.38;1.10;;;;;;;;;;6300455;22;20002;-77
2021/01/22 01:01:38;;;;;;;2.55;1.02;;;;;;;;;;6273093;22;20003;-77
2021/01/22 01:04:04;;;;;;;1.60;1.00;;;;;;;;;;6273151;22;20708;-76
2021/01/22 01:06:30;;;;;;;2.28;0.98;;;;;;;;;;6272579;22;19999;-77
2021/01/22 01:08:56;;;;;;;2.05;1.10;;;;;;;;;;6273321;22;20427;-76
2021/01/22 01:11:22;;;;;;;2.22;1.00;;;;;;;;;;6273672;22;20006;-76
2021/01/22 01:13:48;;;;;;;2.40;0.80;;;;;;;;;;6273946;22;20007;-76
2021/01/22 01:16:14;;;;;;;3.22;0.90;;;;;;;;;;6299902;22;20038;-76
2021/01/22 01:18:40;;;;;;;1.60;0.80;;;;;;;;;;6273226;22;20316;-76
2021/01/22 01:21:07;;;;;;;1.80;0.90;;;;;;;;;;6301183;22;19999;-77
2021/01/22 01:23:33;;;;;;;0.68;0.60;;;;;;;;;;6273155;22;20064;-76
2021/01/22 01:25:59;;;;;;;1.00;0.70;;;;;;;;;;6272332;22;20003;-76
2021/01/22 01:28:25;;;;;;;0.93;0.68;;;;;;;;;;6271605;22;20338;-76
2021/01/22 01:30:52;;;;;;;1.05;0.68;;;;;;;;;;6272802;22;20007;-76
2021/01/22 01:33:18;;;;;;;0.55;0.50;;;;;;;;;;6274850;22;20723;-77
2021/01/22 01:35:44;;;;;;;1.60;0.70;;;;;;;;;;6274283;22;20011;-77
2021/01/22 01:38:10;;;;;;;1.65;0.90;;;;;;;;;;6274946;22;20026;-76
2021/01/22 01:40:36;;;;;;;1.67;0.82;;;;;;;;;;6274998;22;20014;-76
2021/01/22 01:43:02;;;;;;;1.77;0.80;;;;;;;;;;6274735;22;20003;-77
2021/01/22 01:45:29;;;;;;;1.23;0.80;;;;;;;;;;6301429;22;20000;-76
2021/01/22 01:47:55;;;;;;;1.05;0.70;;;;;;;;;;6274590;22;19999;-76
2021/01/22 01:50:21;;;;;;;1.83;0.77;;;;;;;;;;6274696;22;20049;-76
2021/01/22 01:52:48;;;;;;;1.38;0.80;;;;;;;;;;6274925;22;20347;-76
2021/01/22 01:55:15;;;;;;;2.08;0.90;;;;;;;;;;6273931;22;20003;-75
2021/01/22 01:57:41;;;;;;;1.92;0.88;;;;;;;;;;6274420;22;20011;-75
2021/01/22 02:00:07;;;;;;;2.25;1.00;;;;;;;;;;6274485;22;20008;-75
2021/01/22 02:02:33;;;;;;;3.08;1.10;;;;;;;;;;6274247;22;20003;-75
2021/01/22 02:04:59;;;;;;;1.73;0.93;;;;;;;;;;6270037;22;20078;-75
2021/01/22 02:07:25;;;;;;;2.72;1.23;;;;;;;;;;6274546;22;20462;-75
2021/01/22 02:09:51;;;;;;;2.08;0.95;;;;;;;;;;6274490;22;20007;-75
2021/01/22 02:12:19;;;;;;;1.65;1.00;;;;;;;;;;6274525;22;19999;-76
2021/01/22 02:14:45;;;;;;;1.75;0.90;;;;;;;;;;6273725;22;20030;-75
2021/01/22 02:17:11;;;;;;;2.28;1.02;;;;;;;;;;6274528;22;20004;-76
2021/01/22 02:19:51;;;;;;;2.88;1.10;;;;;;;;;;6274023;22;20004;-75
2021/01/22 02:22:17;;;;;;;3.45;1.10;;;;;;;;;;6274470;22;20042;-75
2021/01/22 02:24:44;;;;;;;3.22;1.00;;;;;;;;;;6273407;22;19999;-75
2021/01/22 02:27:10;;;;;;;2.53;0.95;;;;;;;;;;6274156;22;20030;-76
2021/01/22 02:29:37;;;;;;;3.42;1.05;;;;;;;;;;6273810;22;20018;-75
2021/01/22 02:32:05;;;;;;;2.90;1.10;;;;;;;;;;6274045;22;19999;-77
2021/01/22 02:34:34;;;;;;;;;;;;;;;;;;6273956;22;20025;-75
2021/01/22 02:37:01;;;;;;;2.45;1.13;;;;;;;;;;6274138;22;19898;-74
2021/01/22 02:39:29;;;;;;;6.53;1.00;;;;;;;;;;6274267;22;20058;-77
2021/01/22 02:41:57;;;;;;;4.32;1.00;;;;;;;;;;6273799;22;20015;-75
2021/01/22 02:44:23;;;;;;;2.03;0.70;;;;;;;;;;6273594;22;20002;-75
2021/01/22 02:46:50;;;;;;;5.10;1.15;;;;;;;;;;6274420;22;20029;-75
2021/01/22 02:49:16;;;;;;;3.65;1.15;;;;;;;;;;6274155;22;20412;-74
2021/01/22 02:51:42;;;;;;;3.13;1.02;;;;;;;;;;6274274;22;20007;-76
2021/01/22 02:54:08;;;;;;;3.17;1.00;;;;;;;;;;6274244;22;20007;-75
2021/01/22 02:56:48;;;;;;;3.03;1.20;;;;;;;;;;6273034;22;20014;-75
2021/01/22 02:59:21;;;;;;;5.60;1.08;;;;;;;;;;6273639;22;20114;-75
2021/01/22 03:02:07;;;;;;;2.88;1.10;;;;;;;;;;6275610;22;20090;-74
2021/01/22 03:04:35;;;;;;;3.33;1.05;;;;;;;;;;6200527;22;20012;-78
2021/01/22 03:07:02;;;;;;;6.00;1.13;;;;;;;;;;6277477;22;20003;-75
2021/01/22 03:09:29;;;;;;;3.78;1.35;;;;;;;;;;6277325;22;20006;-74
2021/01/22 03:11:55;;;;;;;4.18;1.30;;;;;;;;;;6277542;22;20454;-77
2021/01/22 03:14:22;;;;;;;6.30;1.30;;;;;;;;;;6277054;22;20084;-77
2021/01/22 03:16:49;;;;;;;3.65;1.20;;;;;;;;;;6277174;22;20458;-75
2021/01/22 03:19:16;;;;;;;4.10;1.15;;;;;;;;;;6277269;22;20014;-76
2021/01/22 03:21:42;;;;;;;3.28;1.10;;;;;;;;;;6277177;22;20056;-75
2021/01/22 03:24:08;;;;;;;4.78;1.25;;;;;;;;;;6277001;22;20060;-75
2021/01/22 03:26:34;;;;;;;5.10;1.10;;;;;;;;;;6304223;22;20070;-76
2021/01/22 03:29:00;;;;;;;2.53;1.00;;;;;;;;;;6276608;22;20491;-77
2021/01/22 03:31:26;;;;;;;3.60;1.00;;;;;;;;;;6277119;22;20098;-75
2021/01/22 03:33:52;;;;;;;3.97;1.02;;;;;;;;;;6277276;22;20013;-75
2021/01/22 03:36:18;;;;;;;3.65;1.10;;;;;;;;;;6304076;22;20026;-75
2021/01/22 03:38:44;;;;;;;5.75;1.08;;;;;;;;;;6277092;22;20038;-74
2021/01/22 03:41:10;;;;;;;2.20;1.13;;;;;;;;;;6276765;22;19999;-76
2021/01/22 03:43:36;;;;;;;4.45;1.25;;;;;;;;;;6276998;22;20007;-75
2021/01/22 03:46:02;;;;;;;5.53;1.20;;;;;;;;;;6276450;22;20003;-75
2021/01/22 03:48:28;;;;;;;6.95;1.20;;;;;;;;;;6276900;22;20033;-75
2021/01/22 03:50:54;;;;;;;5.10;1.30;;;;;;;;;;6276834;22;20005;-75
2021/01/22 03:53:20;;;;;;;2.92;0.85;;;;;;;;;;6276765;22;20013;-75
2021/01/22 03:55:46;;;;;;;4.15;1.23;;;;;;;;;;6276301;22;20567;-75
2021/01/22 03:58:12;;;;;;;6.40;1.27;;;;;;;;;;6276731;22;20089;-75
2021/01/22 04:00:38;;;;;;;6.53;1.13;;;;;;;;;;6276601;22;20090;-74
2021/01/22 04:03:04;;;;;;;2.42;1.10;;;;;;;;;;6274403;22;20557;-74
2021/01/22 04:05:30;;;;;;;3.17;1.02;;;;;;;;;;6273064;22;20034;-74
2021/01/22 04:07:56;;;;;;;4.85;1.30;;;;;;;;;;6274441;22;20007;-75
2021/01/22 04:10:22;;;;;;;5.30;1.45;;;;;;;;;;6273870;22;20391;-74
2021/01/22 04:12:48;;;;;;;2.53;1.17;;;;;;;;;;6272418;22;20086;-75
2021/01/22 04:15:14;;;;;;;3.47;1.10;;;;;;;;;;6272587;22;20122;-75
2021/01/22 04:17:40;;;;;;;3.55;1.30;;;;;;;;;;6273382;22;20042;-74
2021/01/22 04:20:07;;;;;;;6.07;1.30;;;;;;;;;;6272927;22;20012;-74
2021/01/22 04:22:33;;;;;;;6.22;1.60;;;;;;;;;;6273006;22;20053;-76
2021/01/22 04:24:59;;;;;;;2.08;1.05;;;;;;;;;;6272615;22;20007;-75
2021/01/22 04:27:25;;;;;;;3.95;1.30;;;;;;;;;;6273102;22;19996;-75
2021/01/22 04:29:51;;;;;;;2.90;1.15;;;;;;;;;;6272577;22;20014;-75
2021/01/22 04:32:17;;;;;;;4.07;1.30;;;;;;;;;;6273070;22;20498;-75
2021/01/22 04:34:43;;;;;;;5.10;0.90;;;;;;;;;;6272234;22;20011;-75
2021/01/22 04:37:09;;;;;;;4.90;1.20;;;;;;;;;;6273155;22;20095;-75
2021/01/22 04:39:36;;;;;;;2.05;1.00;;;;;;;;;;6273026;22;20022;-75
2021/01/22 04:42:03;;;;;;;3.53;1.00;;;;;;;;;;6273179;22;20003;-75
2021/01/22 04:44:29;;;;;;;5.13;1.17;;;;;;;;;;6272604;22;20023;-76
2021/01/22 04:46:55;;;;;;;2.80;0.80;;;;;;;;;;6272854;22;20098;-75
2021/01/22 04:49:22;;;;;;;3.20;0.88;;;;;;;;;;6273101;22;19995;-75
2021/01/22 04:51:52;;;;;;;5.13;1.13;;;;;;;;;;6272880;22;20007;-74
2021/01/22 04:54:20;;;;;;;2.90;0.80;;;;;;;;;;6272890;22;20007;-75
2021/01/22 04:56:47;;;;;;;3.65;1.23;;;;;;;;;;6272773;22;20015;-74
2021/01/22 04:59:22;;;;;;;1.23;0.75;;;;;;;;;;6273114;22;20017;-74
2021/01/22 05:01:49;;;;;;;2.47;1.02;;;;;;;;;;6272912;22;20099;-75
2021/01/22 05:04:16;;;;;;;4.28;1.20;;;;;;;;;;6272663;22;20007;-75
2021/01/22 05:06:42;;;;;;;;;;;;;;;;;;6272376;22;20003;-74
2021/01/22 05:09:08;;;;;;;2.92;1.00;;;;;;;;;;6300220;22;19952;-75
2021/01/22 05:11:35;;;;;;;3.00;0.90;;;;;;;;;;6272676;22;20033;-75
2021/01/22 05:14:02;;;;;;;1.25;0.60;;;;;;;;;;6272559;22;20003;-75
2021/01/22 05:16:28;;;;;;;2.83;0.52;;;;;;;;;;6272674;22;20034;-76
2021/01/22 05:18:54;;;;;;;2.92;0.63;;;;;;;;;;6272876;22;20007;-75
2021/01/22 05:21:20;;;;;;;2.28;0.60;;;;;;;;;;6272845;22;20282;-74
2021/01/22 05:23:47;;;;;;;2.20;0.65;;;;;;;;;;6272150;22;20003;-75
2021/01/22 05:26:16;;;;;;;4.10;0.77;;;;;;;;;;6272070;22;20011;-74
2021/01/22 05:28:47;;;;;;;0.80;0.50;;;;;;;;;;6272636;22;20018;-75
2021/01/22 05:31:14;;;;;;;0.55;0.40;;;;;;;;;;6272396;22;20354;-75
2021/01/22 05:33:40;;;;;;;1.95;0.95;;;;;;;;;;6272791;22;19999;-75
2021/01/22 05:36:23;;;;;;;2.85;0.60;;;;;;;;;;6271960;22;20011;-76
2021/01/22 05:38:49;;;;;;;0.77;0.50;;;;;;;;;;6272733;22;20090;-75
2021/01/22 05:41:15;;;;;;;0.50;0.50;;;;;;;;;;6273006;22;20008;-74
2021/01/22 05:43:41;;;;;;;2.08;0.55;;;;;;;;;;6272418;22;20031;-75
2021/01/22 05:46:21;;;;;;;3.38;0.60;;;;;;;;;;6272641;22;20410;-77
2021/01/22 05:48:47;;;;;;;1.23;0.50;;;;;;;;;;6272987;22;19999;-75
2021/01/22 05:51:13;;;;;;;1.25;0.50;;;;;;;;;;6272689;22;20045;-74
2021/01/22 05:53:47;;;;;;;1.52;0.50;;;;;;;;;;6272904;22;20007;-75
2021/01/22 05:56:13;;;;;;;2.60;0.65;;;;;;;;;;6272729;22;20006;-75
2021/01/22 05:58:41;;;;;;;0.85;0.52;;;;;;;;;;6272671;22;20003;-75
2021/01/22 06:01:14;;;;;;;1.83;0.60;;;;;;;;;;6272250;22;20037;-75
2021/01/22 06:03:43;;;;;;;1.55;0.52;;;;;;;;;;6272545;22;20388;-76
2021/01/22 06:06:10;;;;;;;1.17;0.77;;;;;;;;;;6271816;22;20003;-74
2021/01/22 06:08:52;;;;;;;1.17;0.63;;;;;;;;;;6272704;22;20007;-75
2021/01/22 06:11:20;;;;;;;1.13;0.55;;;;;;;;;;6272731;22;20007;-75
2021/01/22 06:13:48;;;;;;;2.55;0.55;;;;;;;;;;6273160;22;20007;-76
2021/01/22 06:16:14;;;;;;;;;;;;;;;;;;6272395;22;20003;-76
2021/01/22 06:18:40;;;;;;;1.63;0.80;;;;;;;;;;6272969;22;19906;-75
2021/01/22 06:21:35;;;;;;;2.08;0.60;;;;;;;;;;6274393;22;20423;-76
2021/01/22 06:24:02;;;;;;;1.15;0.38;;;;;;;;;;6243124;22;20011;-75
2021/01/22 06:26:32;;;;;;;2.20;0.60;;;;;;;;;;6273935;22;20208;-76
2021/01/22 06:29:02;;;;;;;0.75;0.45;;;;;;;;;;6273942;22;20060;-75
2021/01/22 06:31:29;;;;;;;2.50;0.57;;;;;;;;;;6274539;22;20015;-74
2021/01/22 06:33:55;;;;;;;1.55;0.60;;;;;;;;;;6274363;22;19999;-75
2021/01/22 06:36:22;;;;;;;4.03;0.80;;;;;;;;;;6273406;22;20003;-75
2021/01/22 06:38:49;;;;;;;2.40;0.57;;;;;;;;;;6274345;22;20412;-74
2021/01/22 06:41:15;;;;;;;5.13;0.73;;;;;;;;;;6274320;22;20006;-75
2021/01/22 06:43:41;;;;;;;2.10;0.70;;;;;;;;;;6274112;22;20003;-75
2021/01/22 06:46:13;;;;;;;2.25;0.52;;;;;;;;;;6273877;22;19996;-75
2021/01/22 06:48:55;;;;;;;0.98;0.50;;;;;;;;;;6274421;22;19999;-75
2021/01/22 06:51:22;;;;;;;2.20;0.60;;;;;;;;;;6274414;22;20023;-77
2021/01/22 06:54:21;;;;;;;1.77;0.60;;;;;;;;;;6301763;22;20078;-75
2021/01/22 06:56:56;;;;;;;2.67;0.63;;;;;;;;;;6273640;22;20064;-76
2021/01/22 06:59:28;;;;;;;1.17;0.70;;;;;;;;;;6274407;22;20007;-76
2021/01/22 07:01:54;;;;;;;2.55;0.70;;;;;;;;;;6274573;22;20010;-77
2021/01/22 07:04:41;;;;;;;1.95;0.60;;;;;;;;;;6273800;22;20107;-76
2021/01/22 07:07:08;;;;;;;2.00;0.57;;;;;;;;;;6273248;22;20073;-79
2021/01/22 07:09:45;;;;;;;2.75;0.80;;;;;;;;;;6274262;22;20009;-77
2021/01/22 07:12:11;;;;;;;1.77;0.80;;;;;;;;;;6274547;22;20012;-77
2021/01/22 07:14:44;;;;;;;4.72;0.60;;;;;;;;;;6273850;22;20003;-78
2021/01/22 07:17:15;;;;;;;2.05;0.60;;;;;;;;;;6274092;22;19999;-76
2021/01/22 07:19:48;;;;;;;3.55;0.77;;;;;;;;;;6273970;22;20479;-76
2021/01/22 07:22:15;;;;;;;1.48;0.60;;;;;;;;;;6273813;22;19999;-78
2021/01/22 07:24:42;;;;;;;2.63;0.70;;;;;;;;;;6273236;22;20060;-78
2021/01/22 07:27:13;;;;;;;1.52;0.60;;;;;;;;;;6273872;22;20062;-76
2021/01/22 07:29:39;;;;;;;1.38;0.52;;;;;;;;;;6300814;22;20033;-76
2021/01/22 07:32:06;;;;;;;1.83;0.60;;;;;;;;;;6274003;22;20428;-77
2021/01/22 07:34:51;;;;;;;1.33;0.55;;;;;;;;;;6273386;22;20031;-77
2021/01/22 07:37:17;;;;;;;2.67;0.70;;;;;;;;;;6273687;22;20007;-77
2021/01/22 07:39:44;;;;;;;2.53;0.73;;;;;;;;;;6273289;22;19999;-76
2021/01/22 07:42:10;;;;;;;8.80;0.60;;;;;;;;;;6273767;22;20026;-76
2021/01/22 07:44:37;;;;;;;2.88;0.75;;;;;;;;;;6273637;22;20257;-77
2021/01/22 07:47:04;;;;;;;0.32;0.32;;;;;;;;;;6273667;22;19999;-78
2021/01/22 07:49:30;;;;;;;1.70;0.55;;;;;;;;;;6273971;22;20037;-77
2021/01/22 07:51:56;;;;;;;1.98;0.70;;;;;;;;;;6273917;22;19999;-77
2021/01/22 07:54:22;;;;;;;1.15;0.52;;;;;;;;;;6272837;22;19999;-78
2021/01/22 07:56:48;;;;;;;3.63;1.23;;;;;;;;;;6273642;22;20007;-76
2021/01/22 07:59:14;;;;;;;2.05;0.80;;;;;;;;;;6273492;22;20007;-78
2021/01/22 08:01:40;;;;;;;3.47;1.60;;;;;;;;;;6273493;22;20037;-76
2021/01/22 08:04:06;;;;;;;2.20;0.60;;;;;;;;;;6273177;22;20015;-76
2021/01/22 08:06:45;;;;;;;2.45;0.70;;;;;;;;;;6300190;22;20071;-76
2021/01/22 08:09:12;;;;;;;2.17;0.80;;;;;;;;;;6273217;22;20440;-76
2021/01/22 08:11:38;;;;;;;2.03;1.02;;;;;;;;;;6273604;22;20023;-76
2021/01/22 08:14:04;;;;;;;2.80;1.33;;;;;;;;;;6273327;22;20455;-76
2021/01/22 08:16:31;;;;;;;2.17;1.00;;;;;;;;;;6272667;22;20010;-75
2021/01/22 08:18:57;;;;;;;2.75;1.00;;;;;;;;;;6273311;22;20003;-76
2021/01/22 08:21:23;;;;;;;2.92;1.10;;;;;;;;;;6273041;22;20008;-76
2021/01/22 08:23:49;;;;;;;1.50;0.70;;;;;;;;;;6300909;22;19999;-75
2021/01/22 08:26:16;;;;;;;2.15;0.90;;;;;;;;;;6272617;22;20006;-75
2021/01/22 08:28:42;;;;;;;1.20;0.60;;;;;;;;;;6273778;22;20037;-75
2021/01/22 08:31:12;;;;;;;2.72;0.70;;;;;;;;;;6273185;22;20069;-77
2021/01/22 08:33:39;;;;;;;1.10;0.50;;;;;;;;;;6273171;22;20078;-78
2021/01/22 08:36:08;;;;;;;2.13;0.70;;;;;;;;;;6272822;22;20003;-79
2021/01/22 08:38:35;;;;;;;3.50;0.70;;;;;;;;;;6273723;22;20068;-76
2021/01/22 08:41:01;;;;;;;2.13;0.70;;;;;;;;;;6273093;22;20086;-76
2021/01/22 08:43:27;;;;;;;2.30;0.70;;;;;;;;;;6273216;22;20003;-76
2021/01/22 08:46:06;;;;;;;3.33;0.65;;;;;;;;;;6272611;22;20002;-78
2021/01/22 08:48:33;;;;;;;2.17;0.82;;;;;;;;;;6273236;22;20095;-77
2021/01/22 08:51:00;;;;;;;2.92;0.70;;;;;;;;;;6272921;22;20469;-77
2021/01/22 08:53:26;;;;;;;1.60;0.50;;;;;;;;;;6272966;22;20398;-76
2021/01/22 08:56:09;;;;;;;1.65;0.75;;;;;;;;;;6272521;22;20007;-78
2021/01/22 08:58:35;;;;;;;2.35;0.77;;;;;;;;;;6273158;22;20439;-77
2021/01/22 09:01:01;;;;;;;0.40;0.35;;;;;;;;;;6273232;22;20122;-77
2021/01/22 09:03:27;;;;;;;1.35;0.63;;;;;;;;;;6273197;22;20144;-76
2021/01/22 09:05:54;;;;;;;2.33;0.88;;;;;;;;;;6272846;22;20041;-77
2021/01/22 09:08:22;;;;;;;2.05;0.60;;;;;;;;;;6273134;22;20335;-76
2021/01/22 09:10:51;;;;;;;1.63;0.50;;;;;;;;;;6272801;22;20004;-76
2021/01/22 09:13:20;;;;;;;2.10;0.60;;;;;;;;;;6300463;22;20004;-76
2021/01/22 09:15:47;;;;;;;1.33;0.90;;;;;;;;;;6272131;22;20011;-77
2021/01/22 09:18:23;;;;;;;1.90;0.50;;;;;;;;;;6273010;22;20086;-78
2021/01/22 09:21:03;;;;;;;2.33;0.68;;;;;;;;;;6272797;22;20003;-76
2021/01/22 09:23:29;;;;;;;1.92;0.70;;;;;;;;;;6273202;22;20031;-77
2021/01/22 09:25:56;;;;;;;2.30;0.70;;;;;;;;;;6272260;22;19995;-77
2021/01/22 09:28:22;;;;;;;2.55;0.70;;;;;;;;;;6272967;22;20003;-77
2021/01/22 09:30:48;;;;;;;1.42;0.70;;;;;;;;;;6272808;22;20003;-76
2021/01/22 09:33:14;;;;;;;2.38;0.93;;;;;;;;;;6272794;22;20407;-77
2021/01/22 09:35:41;;;;;;;1.95;0.50;;;;;;;;;;6272353;22;20367;-78
2021/01/22 09:38:07;;;;;;;1.63;0.55;;;;;;;;;;6273123;22;20055;-77
2021/01/22 09:40:34;;;;;;;2.80;0.73;;;;;;;;;;6272896;22;20007;-77
2021/01/22 09:43:00;;;;;;;2.20;0.40;;;;;;;;;;6272599;22;20014;-77
2021/01/22 09:45:26;;;;;;;2.72;0.70;;;;;;;;;;6271887;22;20083;-76
2021/01/22 09:47:52;;;;;;;0.57;0.57;;;;;;;;;;6272878;22;20489;-79
2021/01/22 09:50:18;;;;;;;1.83;0.80;;;;;;;;;;6272521;22;20014;-80
2021/01/22 09:52:45;;;;;;;0.90;0.60;;;;;;;;;;6302047;22;20010;-81
2021/01/22 09:55:19;;;;;;;6.22;0.90;;;;;;;;;;6275282;22;20003;-82
2021/01/22 09:57:45;;;;;;;0.75;0.50;;;;;;;;;;6276267;22;20007;-81
2021/01/22 10:00:14;;;;;;;3.35;0.90;;;;;;;;;;6275635;22;20014;-81
2021/01/22 10:02:40;;;;;;;1.63;0.88;;;;;;;;;;6304490;22;20022;-82
2021/01/22 10:05:06;;;;;;;1.98;0.80;;;;;;;;;;6303404;22;19995;-79
2021/01/22 10:07:33;;;;;;;3.35;0.70;;;;;;;;;;6303709;22;19995;-82
2021/01/22 10:09:59;;;;;;;2.92;0.90;;;;;;;;;;6276209;22;20003;-81
2021/01/22 10:12:25;;;;;;;1.08;0.70;;;;;;;;;;6303849;22;19999;-79
2021/01/22 10:14:51;;;;;;;1.88;0.73;;;;;;;;;;6304055;22;20004;-80
2021/01/22 10:17:17;;;;;;;2.05;0.85;;;;;;;;;;6276787;22;20406;-80
2021/01/22 10:19:43;;;;;;;1.98;0.80;;;;;;;;;;6277394;22;20030;-80
2021/01/22 10:22:09;;;;;;;1.98;0.70;;;;;;;;;;6277541;22;20078;-80
2021/01/22 10:24:35;;;;;;;1.55;0.70;;;;;;;;;;6277160;22;19999;-80
2021/01/22 10:27:01;;;;;;;2.83;0.90;;;;;;;;;;6304638;22;20000;-81
2021/01/22 10:29:27;;;;;;;1.58;0.80;;;;;;;;;;6277341;22;20061;-80
2021/01/22 10:31:53;;;;;;;2.65;0.80;;;;;;;;;;6277360;22;19999;-80
2021/01/22 10:34:19;;;;;;;3.80;0.98;;;;;;;;;;6277875;22;20035;-80
2021/01/22 10:36:45;;;;;;;2.28;0.70;;;;;;;;;;6277525;22;20003;-79
2021/01/22 10:39:11;;;;;;;4.05;0.90;;;;;;;;;;6278001;22;20011;-80
2021/01/22 10:41:37;;;;;;;1.20;0.70;;;;;;;;;;6304308;22;20007;-81
2021/01/22 10:44:04;;;;;;;5.53;0.90;;;;;;;;;;6277453;22;20003;-81
2021/01/22 10:46:31;;;;;;;1.85;0.70;;;;;;;;;;6301031;22;20339;-79
2021/01/22 10:48:57;;;;;;;4.15;0.80;;;;;;;;;;6275935;22;20010;-80
2021/01/22 10:51:23;;;;;;;3.88;0.80;;;;;;;;;;6301888;22;19998;-79
2021/01/22 10:53:49;;;;;;;1.77;0.70;;;;;;;;;;6301545;22;20068;-80
2021/01/22 10:56:15;;;;;;;1.67;0.70;;;;;;;;;;6273540;22;20445;-79
2021/01/22 10:58:41;;;;;;;2.50;0.82;;;;;;;;;;6304877;22;20026;-82
2021/01/22 11:01:07;;;;;;;3.45;0.75;;;;;;;;;;6274885;22;20011;-81
2021/01/22 11:03:34;;;;;;;2.53;1.00;;;;;;;;;;6302025;22;20064;-81
2021/01/22 11:06:00;;;;;;;4.45;0.90;;;;;;;;;;6301378;22;20006;-80
2021/01/22 11:08:26;;;;;;;2.70;0.95;;;;;;;;;;6275901;22;20056;-80
2021/01/22 11:10:52;;;;;;;5.35;0.93;;;;;;;;;;6275051;22;20321;-81
2021/01/22 11:13:18;;;;;;;5.57;0.93;;;;;;;;;;6303434;22;20052;-80
2021/01/22 11:15:44;;;;;;;2.25;0.80;;;;;;;;;;6273689;22;20004;-80
2021/01/22 11:18:12;;;;;;;3.17;0.70;;;;;;;;;;6301705;22;20003;-80
2021/01/22 11:20:38;;;;;;;2.17;0.85;;;;;;;;;;6272804;22;20018;-79
2021/01/22 11:23:05;;;;;;;3.05;0.80;;;;;;;;;;6301053;22;20007;-80
2021/01/22 11:25:31;;;;;;;1.90;0.77;;;;;;;;;;6272776;22;20056;-79
2021/01/22 11:27:57;;;;;;;8.05;1.00;;;;;;;;;;6273202;22;20007;-79
2021/01/22 11:30:23;;;;;;;29.38;16.25;;;;;;;;;;6273528;22;20349;-79
2021/01/22 11:32:49;;;;;;;2.10;0.93;;;;;;;;;;6301522;22;20083;-80
2021/01/22 11:35:15;;;;;;;3.35;1.00;;;;;;;;;;6301049;22;20009;-80
2021/01/22 11:37:44;;;;;;;4.82;0.90;;;;;;;;;;6273626;22;20003;-80
2021/01/22 11:40:10;;;;;;;2.45;0.80;;;;;;;;;;6274312;22;20033;-79
2021/01/22 11:42:36;;;;;;;2.22;0.80;;;;;;;;;;6274515;22;20003;-79
2021/01/22 11:45:03;;;;;;;3.92;0.80;;;;;;;;;;6301167;22;20007;-80
2021/01/22 11:47:29;;;;;;;2.13;0.90;;;;;;;;;;6274585;22;20485;-79
2021/01/22 11:49:55;;;;;;;1.27;0.70;;;;;;;;;;6301837;22;20000;-80
2021/01/22 11:52:21;;;;;;;3.10;0.90;;;;;;;;;;6300403;22;20034;-79
2021/01/22 11:54:47;;;;;;;4.75;0.63;;;;;;;;;;6272603;22;20340;-79
2021/01/22 11:57:13;;;;;;;2.90;0.80;;;;;;;;;;6301160;22;20019;-79
2021/01/22 11:59:39;;;;;;;2.72;1.00;;;;;;;;;;6273067;22;20006;-80
2021/01/22 12:02:05;;;;;;;1.50;0.70;;;;;;;;;;6273474;22;20010;-78
2021/01/22 12:04:31;;;;;;;2.70;0.63;;;;;;;;;;6300258;22;20074;-79
2021/01/22 12:06:58;;;;;;;3.55;0.80;;;;;;;;;;6273323;22;20092;-79
2021/01/22 12:09:24;;;;;;;6.25;0.90;;;;;;;;;;6300841;22;20683;-79
2021/01/22 12:11:50;;;;;;;2.55;0.82;;;;;;;;;;6273638;22;20025;-80
2021/01/22 12:14:16;;;;;;;1.98;0.80;;;;;;;;;;6273059;22;20034;-80
2021/01/22 12:16:42;;;;;;;2.03;0.77;;;;;;;;;;6272543;22;20056;-79
2021/01/22 12:19:08;;;;;;;3.50;1.40;;;;;;;;;;6300740;22;20105;-79
2021/01/22 12:21:34;;;;;;;1.42;0.80;;;;;;;;;;6300646;22;19999;-81
2021/01/22 12:24:00;;;;;;;3.33;0.68;;;;;;;;;;6300334;22;19999;-80
2021/01/22 12:26:26;;;;;;;5.90;1.02;;;;;;;;;;6299649;22;19999;-81
2021/01/22 12:28:52;;;;;;;6.78;1.27;;;;;;;;;;6301240;22;20003;-79
2021/01/22 12:31:18;;;;;;;3.60;0.80;;;;;;;;;;6301582;22;20072;-80
2021/01/22 12:33:44;;;;;;;3.72;0.98;;;;;;;;;;6274504;22;20499;-81
2021/01/22 12:36:11;;;;;;;2.00;0.80;;;;;;;;;;6301031;22;20058;-80
2021/01/22 12:38:37;;;;;;;0.55;0.47;;;;;;;;;;6273626;22;20033;-80
2021/01/22 12:41:04;;;;;;;1.33;0.70;;;;;;;;;;6273834;22;20057;-80
2021/01/22 12:43:30;;;;;;;1.75;0.70;;;;;;;;;;6273807;22;20007;-80
2021/01/22 12:45:56;;;;;;;3.53;0.70;;;;;;;;;;6301399;22;20416;-80
2021/01/22 12:48:22;;;;;;;1.33;0.65;;;;;;;;;;6274077;22;20074;-79
2021/01/22 12:50:48;;;;;;;2.90;0.60;;;;;;;;;;6274325;22;20161;-81
2021/01/22 12:53:14;;;;;;;2.53;0.90;;;;;;;;;;6274076;22;20115;-80
2021/01/22 12:55:45;;;;;;;1.90;0.77;;;;;;;;;;6273153;22;20443;-80
2021/01/22 12:58:11;;;;;;;7.15;0.90;;;;;;;;;;6273024;22;20007;-80
2021/01/22 13:00:37;;;;;;;7.80;1.08;;;;;;;;;;6299761;22;20431;-82
2021/01/22 13:03:03;;;;;;;5.78;1.35;;;;;;;;;;6272905;22;20087;-82
2021/01/22 13:05:29;;;;;;;2.03;0.95;;;;;;;;;;6272577;22;20386;-82
2021/01/22 13:07:56;;;;;;;4.13;1.00;;;;;;;;;;6272160;22;20019;-81
2021/01/22 13:10:22;;;;;;;7.95;1.27;;;;;;;;;;6272408;22;20479;-82
2021/01/22 13:12:49;;;;;;;5.43;1.13;;;;;;;;;;6272501;22;20004;-80
2021/01/22 13:15:15;;;;;;;2.97;1.00;;;;;;;;;;6299237;22;20026;-82
2021/01/22 13:17:41;;;;;;;4.00;1.10;;;;;;;;;;6272734;22;20066;-81
2021/01/22 13:20:08;;;;;;;1.58;0.80;;;;;;;;;;6300002;22;20442;-81
2021/01/22 13:22:34;;;;;;;2.55;1.05;;;;;;;;;;6300073;22;20011;-83
2021/01/22 13:25:03;;;;;;;5.78;1.17;;;;;;;;;;6300000;22;19995;-81
2021/01/22 13:27:29;;;;;;;5.80;1.10;;;;;;;;;;6272860;22;20571;-81
2021/01/22 13:29:55;;;;;;;6.28;1.30;;;;;;;;;;6302226;22;20014;-79
2021/01/22 13:32:21;;;;;;;6.30;1.50;;;;;;;;;;6302241;22;20323;-79
2021/01/22 13:34:47;;;;;;;9.40;1.50;;;;;;;;;;6274256;22;20003;-80
2021/01/22 13:37:14;;;;;;;2.45;1.10;;;;;;;;;;6274674;22;20019;-79
2021/01/22 13:39:40;;;;;;;2.97;0.77;;;;;;;;;;6274813;22;19999;-80
2021/01/22 13:42:06;;;;;;;4.50;1.10;;;;;;;;;;6275156;22;20053;-79
2021/01/22 13:44:32;;;;;;;3.30;1.23;;;;;;;;;;6273545;22;20456;-80
2021/01/22 13:46:58;;;;;;;2.45;0.90;;;;;;;;;;6302499;22;19995;-79
2021/01/22 13:49:24;;;;;;;5.18;1.10;;;;;;;;;;6274715;22;20061;-80
2021/01/22 13:51:50;;;;;;;4.95;1.23;;;;;;;;;;6301935;22;19999;-79
2021/01/22 13:54:16;;;;;;;2.05;0.82;;;;;;;;;;6274761;22;20011;-79
2021/01/22 13:56:42;;;;;;;2.90;0.90;;;;;;;;;;6273862;22;20475;-79
2021/01/22 13:59:09;;;;;;;6.18;1.00;;;;;;;;;;6301566;22;20007;-79
2021/01/22 14:01:35;;;;;;;3.63;1.00;;;;;;;;;;6274823;22;20011;-79
2021/01/22 14:04:01;;;;;;;1.65;0.90;;;;;;;;;;6274372;22;20010;-79
2021/01/22 14:06:27;;;;;;;4.75;1.85;;;;;;;;;;6273237;22;20006;-80
2021/01/22 14:08:53;;;;;;;2.97;1.10;;;;;;;;;;6274510;22;20000;-80
2021/01/22 14:11:19;;;;;;;4.90;1.13;;;;;;;;;;6273945;22;19999;-79
2021/01/22 14:13:45;;;;;;;5.40;1.30;;;;;;;;;;6301690;22;20003;-80
2021/01/22 14:16:11;;;;;;;8.35;1.73;;;;;;;;;;6273627;22;20035;-79
2021/01/22 14:18:37;;;;;;;5.15;1.70;;;;;;;;;;6274120;22;20003;-79
2021/01/22 14:21:04;;;;;;;5.35;1.67;;;;;;;;;;6301388;22;20078;-79
2021/01/22 14:23:30;;;;;;;2.55;1.20;;;;;;;;;;6274236;22;20000;-81
2021/01/22 14:25:56;;;;;;;3.10;1.20;;;;;;;;;;6274204;22;20003;-79
2021/01/22 14:28:22;;;;;;;3.65;1.20;;;;;;;;;;6301807;22;20002;-79
2021/01/22 14:30:48;;;;;;;4.68;1.73;;;;;;;;;;6301355;22;20018;-80
2021/01/22 14:33:14;;;;;;;3.33;1.67;;;;;;;;;;6302051;22;20003;-79
2021/01/22 14:35:40;;;;;;;7.68;2.33;;;;;;;;;;6273178;22;20007;-80
2021/01/22 14:38:06;;;;;;;4.50;1.50;;;;;;;;;;6301629;22;20004;-81
2021/01/22 14:40:32;;;;;;;7.72;3.58;;;;;;;;;;6273920;22;20060;-79
2021/01/22 14:42:58;;;;;;;4.05;2.30;;;;;;;;;;6273788;22;20122;-79